Home > Products > Valid Products > TAF

000
FTUS41 KRLX 230200 AAA
TAFCKB
TAF AMD
KCKB 230236Z 2303/2324 VRB03KT P6SM SKC
     FM231600 23007KT P6SM SCT045
     FM231700 24007KT P6SM VCTS SCT040CB
     FM232000 27007KT P6SM TSRA BKN040CB
     FM232200 28006KT 5SM TSRA BR BKN040CB=



000
FTUS41 KRLX 230200 AAA
TAFBKW
TAF AMD
KBKW 230236Z 2303/2324 00000KT P6SM BKN050
     FM231200 19004KT P6SM SCT035
     FM231600 22008KT P6SM SCT035
     FM231700 24009KT P6SM VCTS SCT035CB
     FM231900 29009KT P6SM VCTS BKN035CB
     FM232200 30009KT 5SM TSRA BR BKN040CB=



000
FTUS41 KRLX 230200 AAA
TAFPKB
TAF AMD
KPKB 230236Z 2303/2324 18005KT P6SM SKC
     FM230800 VRB03KT 6SM BR SKC
     FM231100 22004KT 5SM BR FEW050
     FM231400 23005KT 6SM BR SCT050
     FM231600 24007KT P6SM VCTS SCT045CB
     FM232000 28007KT 6SM TSRA BR BKN040CB
      AMD NOT SKED=



000
FTUS41 KRLX 230200 AAA
TAFCRW
TAF AMD
KCRW 230236Z 2303/2324 VRB03KT P6SM SKC
     FM230800 20004KT 6SM BR SCT050
     FM231500 22007KT P6SM SCT045
     FM231700 22009KT P6SM VCTS SCT040CB
     FM232000 27007KT 5SM TSRA BR BKN040CB=



000
FTUS41 KRLX 230200 AAB
TAFEKN
TAF AMD
KEKN 230236Z 2303/2324 00000KT 6SM BR BKN080
     FM230400 00000KT 4SM BR SCT080
     FM230600 VRB03KT 2SM BR SCT010
     FM230900 VRB03KT 1/2SM FG SCT003
     FM231200 23004KT 2SM BR SCT003
     FM231400 24007KT 4SM BR SCT020
     FM231700 24009KT P6SM VCTS SCT030CB
     FM232000 28011G17KT P6SM VCTS BKN035CB
     FM232200 28010G15KT 6SM TSRA BR BKN040CB
     FM232300 27008KT 5SM TSRA BR BKN040CB=



000
FTUS41 KRLX 230200 AAA
TAFHTS
TAF AMD
KHTS 230236Z 2303/2324 00000KT P6SM SKC
     FM230800 VRB03KT 6SM BR SKC
     FM231100 22004KT 5SM BR FEW050
     FM231400 23005KT 6SM BR SCT050
     FM231600 24007KT P6SM VCTS SCT045CB
     FM232000 28007KT 6SM TSRA BR BKN040CB=



000
FTUS41 KRLX 230100 AAA
TAFEKN
TAF AMD
KEKN 230115Z 2301/2324 VRB03KT 5SM BR FEW035
     FM230600 VRB03KT 2SM BR SCT010
     FM230900 VRB03KT 1/2SM FG SCT003
     FM231200 23004KT 2SM BR SCT003
     FM231400 24007KT 4SM BR SCT020
     FM231700 24009KT P6SM VCTS SCT030CB
     FM232000 28011G17KT P6SM VCTS BKN035CB
     FM232200 28010G15KT 6SM TSRA BR BKN040CB
     FM232300 27008KT 5SM TSRA BR BKN040CB=



000
FTUS41 KRLX 222300
TAFCKB
TAF
KCKB 222329Z 2300/2324 VRB03KT P6SM FEW045
     FM231600 23007KT P6SM SCT045
     FM231700 24007KT P6SM VCTS SCT040CB
     FM232000 27007KT P6SM TSRA BKN040CB
     FM232200 28006KT 5SM TSRA BR BKN040CB=



000
FTUS41 KRLX 222300
TAFPKB
TAF
KPKB 222329Z 2300/2324 18005KT P6SM SKC
     FM230800 VRB03KT 6SM BR SKC
     FM231100 22004KT 5SM BR FEW050
     FM231400 23005KT 6SM BR SCT050
     FM231600 24007KT P6SM VCTS SCT045CB
     FM232000 28007KT 6SM TSRA BR BKN040CB
      AMD NOT SKED=



000
FTUS41 KRLX 222300
TAFEKN
TAF
KEKN 222329Z 2300/2324 VRB03KT P6SM FEW040
     FM230500 VRB03KT 6SM BR FEW040
     FM230700 00000KT 5SM BR FEW030
     FM231000 VRB03KT 2SM BR SCT010
     FM231100 VRB03KT 1SM BR SCT003
     FM231200 23004KT 2SM BR SCT003
     FM231400 24007KT 4SM BR SCT020
     FM231700 24009KT P6SM VCTS SCT030CB
     FM232000 28011G17KT P6SM VCTS BKN035CB
     FM232200 28010G15KT 6SM TSRA BR BKN040CB
     FM232300 27008KT 5SM TSRA BR BKN040CB=



000
FTUS41 KRLX 222300
TAFBKW
TAF
KBKW 222329Z 2300/2324 VRB03KT P6SM FEW050
     FM231200 19004KT P6SM SCT035
     FM231600 22008KT P6SM SCT035
     FM231700 24009KT P6SM VCTS SCT035CB
     FM231900 29009KT P6SM VCTS BKN035CB
     FM232200 30009KT 5SM TSRA BR BKN040CB=



000
FTUS41 KRLX 222300
TAFCRW
TAF
KCRW 222329Z 2300/2324 26005KT P6SM FEW050
     FM230800 VRB03KT P6SM SKC
     FM231000 20004KT 6SM BR SCT050
     FM231500 22007KT P6SM SCT045
     FM231700 22009KT P6SM VCTS SCT040CB
     FM232000 27007KT 5SM TSRA BR BKN040CB=



000
FTUS41 KRLX 222300
TAFHTS
TAF
KHTS 222329Z 2300/2324 18005KT P6SM SKC
     FM230800 VRB03KT 6SM BR SKC
     FM231100 22004KT 5SM BR FEW050
     FM231400 23005KT 6SM BR SCT050
     FM231600 24007KT P6SM VCTS SCT045CB
     FM232000 28007KT 6SM TSRA BR BKN040CB=



000
FTUS41 KRLX 221800 AAA
TAFPKB
TAF AMD
KPKB 221821Z 2218/2318 21005KT P6SM FEW045
     FM222200 20004KT 6SM BR FEW050
     FM231400 23005KT P6SM SCT050
     FM231700 26007KT P6SM VCTS SCT040CB
      AMD NOT SKED=



000
FTUS41 KRLX 221700
TAFBKW
TAF
KBKW 221724Z 2218/2318 16006KT P6SM VCTS SCT040CB
     FM230300 18005KT P6SM SCT035
     FM231700 28009KT P6SM VCTS SCT035CB=



000
FTUS41 KRLX 221700
TAFCKB
TAF
KCKB 221724Z 2218/2318 23004KT P6SM BKN040
     FM230200 VRB03KT P6SM FEW050
     FM231600 23007KT P6SM SCT040
     FM231700 24007KT P6SM VCTS SCT040CB=



000
FTUS41 KRLX 221700
TAFCRW
TAF
KCRW 221724Z 2218/2318 17004KT P6SM SCT045
     FM222200 VRB03KT 6SM HZ SCT050
     FM231400 22006KT P6SM SCT050
     FM231700 22009KT P6SM VCTS SCT040CB=



000
FTUS41 KRLX 221700
TAFPKB
TAF
KPKB 221724Z 2218/2318 21005KT P6SM FEW045
     FM222200 20004KT 6SM BR FEW050
     FM231400 23005KT P6SM SCT050
     FM231700 26007KT P6SM VCTS SCT040CB=



000
FTUS41 KRLX 221700
TAFHTS
TAF
KHTS 221724Z 2218/2318 18004KT P6SM FEW045
     FM222300 00000KT 6SM BR FEW050
     FM231300 22005KT P6SM SCT050
     FM231600 24007KT P6SM VCTS SCT045CB=



000
FTUS41 KRLX 221700
TAFEKN
TAF
KEKN 221724Z 2218/2318 VRB04KT P6SM SCT045
     FM222000 VRB03KT P6SM VCTS SCT045CB
     FM222300 19004KT P6SM SCT050
     FM230600 19004KT 5SM BR FEW050
     FM230800 21004KT 2SM BR SCT001
     FM231000 VRB03KT 1/4SM FG BKN001
     FM231200 VRB03KT 3SM BR SCT001
     FM231300 23004KT 6SM BR SCT040
     FM231400 24005KT P6SM SCT040
     FM231700 27009KT P6SM VCTS SCT035CB=



000
FTUS41 KRLX 221100
TAFHTS
TAF
KHTS 221129Z 2212/2312 VRB03KT 5SM BR HZ SCT001
     FM221300 VRB03KT 6SM HZ SKC
     FM221600 18004KT P6SM SCT045
     FM222200 17004KT 6SM HZ SCT050=



000
FTUS41 KRLX 221100
TAFEKN
TAF
KEKN 221129Z 2212/2312 00000KT 2SM BR BKN003
      TEMPO 2212/2213 4SM BR FEW003
     FM221300 00000KT P6SM SCT030
     FM221500 VRB03KT P6SM SCT040
     FM221800 VRB03KT P6SM VCTS BKN045CB
     FM222300 VRB03KT P6SM SCT050
     FM230600 VRB03KT 4SM BR SCT001
     FM231000 19004KT 2SM BR SCT001=



000
FTUS41 KRLX 221100
TAFCKB
TAF
KCKB 221129Z 2212/2312 VRB03KT 6SM HZ FEW045
     FM221300 VRB03KT P6SM SKC
     FM221600 23005KT P6SM SCT045
     FM230000 19004KT P6SM SCT050=



000
FTUS41 KRLX 221100
TAFPKB
TAF
KPKB 221129Z 2212/2312 VRB03KT 2SM BR FEW001
     FM221300 VRB03KT 6SM HZ SKC
     FM221600 19004KT P6SM SCT045
     FM222200 18003KT 6SM HZ FEW050
     FM230900 21005KT 6SM HZ SCT050
      AMD NOT SKED=



000
FTUS41 KRLX 221100
TAFBKW
TAF
KBKW 221129Z 2212/2312 15004KT P6SM SCT020
     FM221500 17005KT P6SM BKN030
     FM221800 17004KT P6SM VCTS BKN035CB
     FM222300 15004KT P6SM BKN040=



000
FTUS41 KRLX 221100
TAFCRW
TAF
KCRW 221129Z 2212/2312 VRB03KT 6SM HZ SKC
     FM221600 18004KT P6SM SCT045
     FM222200 17004KT 6SM HZ SCT050=



000
FTUS41 KRLX 220800 AAA
TAFEKN
TAF AMD
KEKN 220803Z 2208/2306 00000KT 4SM BR BKN003
      TEMPO 2208/2212 3/4SM BR BKN002
     FM221230 VRB03KT 4SM BR FEW002 SCT045
     FM221300 00000KT P6SM SCT030
     FM221500 VRB03KT P6SM SCT040
     FM221800 VRB03KT P6SM VCTS BKN045CB
     FM222300 VRB03KT P6SM SCT050
     FM230500 VRB03KT 4SM BR SCT001=



000
FTUS41 KRLX 220800 AAA
TAFCRW
TAF AMD
KCRW 220803Z 2208/2306 00000KT 5SM BR FEW001
      TEMPO 2209/2212 2SM BR SCT001
     FM221200 VRB03KT 5SM HZ FEW002
     FM221300 VRB03KT 6SM HZ SKC
     FM221600 18004KT P6SM SCT045
     FM222200 17004KT 6SM HZ SCT050=



000
FTUS41 KRLX 220800 AAA
TAFPKB
TAF AMD
KPKB 220803Z 2208/2306 00000KT 2SM BR SCT001
      TEMPO 2209/2211 1/2SM FG BKN001
     FM221200 VRB03KT 2SM BR FEW001
     FM221300 VRB03KT 6SM HZ SKC
     FM221600 19004KT P6SM SCT045
     FM222200 18003KT 6SM HZ FEW050
      AMD NOT SKED=



000
FTUS41 KRLX 220800 AAA
TAFCKB
TAF AMD
KCKB 220803Z 2208/2306 00000KT 6SM BR FEW045
     FM220900 00000KT 4SM BR FEW001
      TEMPO 2210/2212 3/4SM BR BKN001
     FM221200 VRB03KT 4SM HZ FEW002 FEW045
     FM221300 VRB03KT P6SM SCT045=



000
FTUS41 KRLX 220800 AAA
TAFBKW
TAF AMD
KBKW 220803Z 2208/2306 13004KT 6SM BR FEW001 SCT020
     FM221200 13004KT P6SM SCT030
     FM221800 17004KT P6SM VCTS BKN035CB
     FM222300 15004KT P6SM BKN040=



000
FTUS41 KRLX 220800 AAA
TAFHTS
TAF AMD
KHTS 220803Z 2208/2306 00000KT 1SM BR SCT001
      TEMPO 2209/2211 1/2SM FG BKN001
     FM221200 VRB03KT 2SM BR SCT001
     FM221300 VRB03KT 6SM HZ SKC
     FM221600 18004KT P6SM SCT045
     FM222200 17004KT 6SM HZ SCT050=



000
FTUS41 KRLX 220500
TAFBKW
TAF
KBKW 220534Z 2206/2306 14005KT P6SM SCT080
     FM220900 13004KT 6SM BR FEW001
     FM221200 13004KT P6SM SCT030
     FM221800 17004KT P6SM VCTS BKN035CB
     FM222300 15004KT P6SM BKN040=



000
FTUS41 KRLX 220500
TAFCRW
TAF
KCRW 220534Z 2206/2306 00000KT 6SM BR SCT100
     FM220800 00000KT 2SM BR SCT001
      TEMPO 2209/2212 3/4SM BR BKN001
     FM221200 VRB03KT 4SM HZ FEW002
     FM221300 VRB03KT 6SM HZ SCT250
     FM221600 18004KT P6SM SCT045
     FM222200 17004KT 6SM HZ SCT050=



000
FTUS41 KRLX 220500
TAFEKN
TAF
KEKN 220534Z 2206/2306 00000KT 4SM BR SCT001 BKN080
     FM220700 00000KT 1/4SM FG BKN001
      TEMPO 2207/2209 2SM BR SCT001 BKN080
     FM221230 VRB03KT 4SM BR FEW002 SCT045
     FM221300 00000KT P6SM SKC
     FM221500 VRB03KT P6SM SCT040
     FM221800 VRB03KT P6SM VCTS BKN045CB
     FM222300 VRB03KT P6SM SCT050
     FM230500 VRB03KT 4SM BR SCT001=



000
FTUS41 KRLX 220500
TAFPKB
TAF
KPKB 220534Z 2206/2306 00000KT 4SM BR FEW001
     FM220700 00000KT 2SM BR SCT001
     FM220800 00000KT 1/4SM FG OVC001
     FM221200 VRB03KT 2SM BR FEW001
     FM221300 VRB03KT 6SM HZ SKC
     FM221600 19004KT P6SM SCT045
     FM222200 18003KT 6SM HZ FEW050
      AMD NOT SKED=



000
FTUS41 KRLX 220500
TAFCKB
TAF
KCKB 220534Z 2206/2306 00000KT P6SM SKC
     FM220700 00000KT 4SM BR FEW045
     FM220800 00000KT 2SM BR FEW001
     FM220900 00000KT 1/2SM FG OVC001
     FM221230 VRB03KT 2SM BR FEW002 FEW045
     FM221300 VRB03KT P6SM SCT045=



000
FTUS41 KRLX 220500
TAFHTS
TAF
KHTS 220534Z 2206/2306 00000KT 6SM BR SKC
     FM220800 00000KT 1/2SM FG BKN001
     FM221200 VRB03KT 2SM BR SCT001
     FM221300 VRB03KT 6SM HZ SKC
     FM221600 18004KT P6SM SCT045
     FM222200 17004KT 6SM HZ SCT050=



000
FTUS41 KRLX 220200 AAA
TAFEKN
TAF AMD
KEKN 220255Z 2203/2224 00000KT P6SM FEW004 SCT050 OVC080
     FM220500 00000KT 2SM BR SCT045
     FM220600 00000KT 1/4SM FG OVC001
     FM221230 VRB03KT 4SM BR FEW002 SCT045
     FM221300 00000KT P6SM SCT045=



000
FTUS41 KRLX 220200 AAA
TAFBKW
TAF AMD
KBKW 220255Z 2203/2224 16010KT P6SM FEW045
     FM220500 VRB03KT P6SM SCT080
     FM221200 13004KT P6SM SCT050
     FM221800 17004KT P6SM VCTS BKN045CB=



000
FTUS41 KRLX 220200 AAA
TAFPKB
TAF AMD
KPKB 220255Z 2203/2224 00000KT P6SM SKC
     FM220500 00000KT 5SM BR FEW045
     FM220600 00000KT 2SM BR FEW001
     FM220630 00000KT 1/4SM FG OVC001
     FM221200 VRB03KT 2SM BR FEW001 FEW045
     FM221300 VRB03KT P6SM FEW045=



000
FTUS41 KRLX 220200 AAA
TAFHTS
TAF AMD
KHTS 220255Z 2203/2224 00000KT P6SM SKC
     FM220500 00000KT 4SM BR FEW045
     FM220530 00000KT 1SM BR FEW001
     FM220700 00000KT 1/4SM FG OVC001
     FM221200 VRB03KT 2SM BR FEW001
     FM221230 VRB03KT 4SM BR FEW045
     FM221300 VRB03KT P6SM FEW045=



000
FTUS41 KRLX 220200 AAA
TAFCRW
TAF AMD
KCRW 220255Z 2203/2224 00000KT P6SM SKC
     FM220500 00000KT 4SM BR FEW045
     FM220600 00000KT 2SM BR FEW001
     FM220900 00000KT 1/4SM FG OVC001
     FM221230 VRB03KT 1 1/2SM BR FEW002 FEW045
     FM221300 VRB03KT P6SM SCT050=



000
FTUS41 KRLX 220200 AAA
TAFCKB
TAF AMD
KCKB 220255Z 2203/2224 00000KT P6SM SKC
     FM220700 00000KT 4SM BR FEW045
     FM220800 00000KT 2SM BR FEW001
     FM220900 00000KT 1/2SM FG OVC001
     FM221230 VRB03KT 2SM BR FEW002 FEW045
     FM221300 VRB03KT P6SM SCT045=



000
FTUS41 KRLX 212300 CCA
TAFEKN
TAF COR
KEKN 212341Z 2200/2224 VRB03KT 2SM RA FEW035 BKN045 OVC060
     FM220030 00000KT 5SM BR BKN045
     FM220300 00000KT 4SM BR SCT045
     FM220500 00000KT 2SM BR SCT045
     FM220600 00000KT 1/4SM FG OVC001
     FM221230 VRB03KT 4SM BR FEW002 SCT045
     FM221300 00000KT P6SM SCT045=



000
FTUS41 KRLX 212300
TAFEKN
TAF
KEKN 212335Z 2200/2224 VRB03KT 6SM -RA FEW035 BKN045 OVC060
     FM220300 00000KT 4SM BR SCT045
     FM220500 00000KT 2SM BR SCT045
     FM220600 00000KT 1/4SM FG OVC001
     FM221230 VRB03KT 4SM BR FEW002 SCT045
     FM221300 00000KT P6SM SCT045=



000
FTUS41 KRLX 212300
TAFCKB
TAF
KCKB 212335Z 2200/2224 05003KT P6SM SKC
     FM220700 00000KT 4SM BR FEW045
     FM220800 00000KT 2SM BR FEW001
     FM220900 00000KT 1/2SM FG OVC001
     FM221230 VRB03KT 2SM BR FEW002 FEW045
     FM221300 VRB03KT P6SM SCT045=



000
FTUS41 KRLX 212300
TAFHTS
TAF
KHTS 212335Z 2200/2224 00000KT P6SM SKC
     FM220500 00000KT 4SM BR FEW045
     FM220530 00000KT 1SM BR FEW001
     FM220700 00000KT 1/4SM FG OVC001
     FM221200 VRB03KT 2SM BR FEW001
     FM221230 VRB03KT 4SM BR FEW045
     FM221300 VRB03KT P6SM FEW045=



000
FTUS41 KRLX 212300
TAFPKB
TAF
KPKB 212335Z 2200/2224 00000KT P6SM SKC
     FM220500 00000KT 5SM BR FEW045
     FM220600 00000KT 2SM BR FEW001
     FM220630 00000KT 1/4SM FG OVC001
     FM221200 VRB03KT 2SM BR FEW001 FEW045
     FM221300 VRB03KT P6SM FEW045=



000
FTUS41 KRLX 212300
TAFBKW
TAF
KBKW 212335Z 2200/2224 15006KT P6SM OVC090
     FM220500 VRB03KT P6SM SCT080
     FM221200 13004KT P6SM SCT050
     FM221800 17004KT P6SM VCTS BKN045CB=



000
FTUS41 KRLX 212300
TAFCRW
TAF
KCRW 212335Z 2200/2224 08003KT P6SM FEW050
     FM220500 00000KT 4SM BR FEW045
     FM220600 00000KT 2SM BR FEW001
     FM220900 00000KT 1/4SM FG OVC001
     FM221230 VRB03KT 1 1/2SM BR FEW002 FEW045
     FM221300 VRB03KT P6SM SCT050=



000
FTUS41 KRLX 212000 AAA
TAFPKB
TAF AMD
KPKB 212058Z 2121/2218 12003KT P6SM FEW040 SCT100
     FM220300 00000KT 4SM BR BKN250
     FM220600 00000KT 2SM BR SCT035
     FM220700 00000KT 1/4SM FG OVC001
     FM221300 VRB03KT 3SM BR FEW035
     FM221400 VRB03KT P6SM SCT035=



000
FTUS41 KRLX 212000 AAA
TAFEKN
TAF AMD
KEKN 212058Z 2121/2218 VRB04KT P6SM SKC
     FM212300 00000KT P6SM BKN050
     FM220300 00000KT 4SM BR SCT030
     FM220500 00000KT 1 1/2SM BR SCT030
     FM220700 00000KT 1/4SM FG OVC001
     FM221300 VRB03KT 3SM BR SCT040
     FM221400 VRB03KT P6SM SCT040=



000
FTUS41 KRLX 212000 AAA
TAFCRW
TAF AMD
KCRW 212058Z 2121/2218 00000KT P6SM SCT050
     FM220300 00000KT 4SM BR SCT060
     FM220400 00000KT 2SM BR SCT060
     FM220800 00000KT 1/4SM FG OVC001
     FM221300 VRB03KT 3SM BR SCT040
     FM221400 VRB03KT P6SM SCT040=



000
FTUS41 KRLX 212000 AAA
TAFBKW
TAF AMD
KBKW 212058Z 2121/2218 14008KT P6SM SKC
     FM220100 VRB03KT P6SM SCT045
     FM220700 VRB03KT P6SM BKN250
     FM221200 13004KT P6SM SCT035
     FM221400 17004KT P6SM BKN035=



000
FTUS41 KRLX 212000 AAA
TAFHTS
TAF AMD
KHTS 212058Z 2121/2218 00000KT P6SM BKN100
     FM220300 00000KT 4SM BR BKN250
     FM220500 00000KT 2SM BR FEW060
     FM220800 00000KT 1/4SM FG OVC001
     FM221300 VRB03KT 3SM BR FEW035
     FM221400 VRB03KT P6SM SCT035=



000
FTUS41 KRLX 212000 AAA
TAFCKB
TAF AMD
KCKB 212058Z 2121/2218 17003KT P6SM SCT045 SCT070
     FM220300 00000KT 4SM BR SCT040
     FM220600 00000KT 2SM BR SCT040
     FM220800 00000KT 1/2SM FG OVC001
     FM221300 VRB03KT 3SM BR SCT040
     FM221400 VRB03KT P6SM SCT040=



000
FTUS41 KRLX 211700
TAFCKB
TAF
KCKB 211735Z 2118/2218 VRB03KT P6SM SCT040
     FM220300 00000KT 4SM BR SCT040
     FM220600 00000KT 2SM BR SCT040
     FM220800 00000KT 1/2SM FG OVC001
     FM221300 VRB03KT 3SM BR SCT040
     FM221400 VRB03KT P6SM SCT040=



000
FTUS41 KRLX 211700
TAFBKW
TAF
KBKW 211735Z 2118/2218 13005KT P6SM SCT045
     FM211900 13005KT P6SM VCTS SCT045CB
     FM220100 VRB03KT P6SM SCT045
     FM220700 VRB03KT P6SM BKN250
     FM221200 13004KT P6SM SCT035
     FM221400 17004KT P6SM BKN035=



000
FTUS41 KRLX 211700
TAFEKN
TAF
KEKN 211735Z 2118/2218 VRB03KT P6SM VCTS SCT030CB
      TEMPO 2118/2120 5SM -TSRA BR BKN030CB
     FM212300 00000KT P6SM BKN050
     FM220300 00000KT 4SM BR SCT030
     FM220500 00000KT 1 1/2SM BR SCT030
     FM220700 00000KT 1/4SM FG OVC001
     FM221300 VRB03KT 3SM BR SCT040
     FM221400 VRB03KT P6SM SCT040=



000
FTUS41 KRLX 211700
TAFPKB
TAF
KPKB 211735Z 2118/2218 00000KT P6SM SCT040
     FM220300 00000KT 4SM BR BKN250
     FM220600 00000KT 2SM BR SCT035
     FM220700 00000KT 1/4SM FG OVC001
     FM221300 VRB03KT 3SM BR FEW035
     FM221400 VRB03KT P6SM SCT035=



000
FTUS41 KRLX 211700
TAFCRW
TAF
KCRW 211735Z 2118/2218 VRB03KT P6SM SCT035
     FM220300 00000KT 4SM BR SCT060
     FM220400 00000KT 2SM BR SCT060
     FM220800 00000KT 1/4SM FG OVC001
     FM221300 VRB03KT 3SM BR SCT040
     FM221400 VRB03KT P6SM SCT040=



000
FTUS41 KRLX 211700
TAFHTS
TAF
KHTS 211735Z 2118/2218 00000KT P6SM SCT035
     FM220300 00000KT 4SM BR BKN250
     FM220500 00000KT 2SM BR FEW060
     FM220800 00000KT 1/4SM FG OVC001
     FM221300 VRB03KT 3SM BR FEW035
     FM221400 VRB03KT P6SM SCT035=



000
FTUS41 KRLX 211400 AAB
TAFEKN
TAF AMD
KEKN 211433Z 2115/2212 00000KT P6SM SCT035
     FM212000 VRB03KT P6SM BKN035
     FM220200 00000KT 4SM BR BKN035
     FM220600 00000KT 2SM BR SCT030
     FM220700 00000KT 1/4SM FG SCT250=



000
FTUS41 KRLX 211400 AAB
TAFCRW
TAF AMD
KCRW 211433Z 2115/2212 13003KT P6SM FEW035
     FM211700 13003KT P6SM SCT035
     FM212200 VRB03KT P6SM BKN035
     FM220300 12004KT 4SM BR BKN035
     FM220800 15004KT 1/2SM FG SCT250=



000
FTUS41 KRLX 211400 AAA
TAFPKB
TAF AMD
KPKB 211433Z 2115/2212 00000KT P6SM SCT035
     FM220300 00000KT 4SM BR SCT250
     FM220600 00000KT 1/2SM FG SCT250
     FM221100 VRB03KT 1/4SM FG FEW035=



000
FTUS41 KRLX 211400 AAA
TAFBKW
TAF AMD
KBKW 211433Z 2115/2212 15007KT P6SM SCT250
     FM211700 13005KT P6SM SCT025
     FM211800 13005KT P6SM SCT025 BKN035
     FM212300 13005KT P6SM BKN035
     FM220200 13006KT P6SM BKN250=



000
FTUS41 KRLX 211400 AAB
TAFCKB
TAF AMD
KCKB 211433Z 2115/2212 00000KT P6SM SCT035
     FM220300 VRB03KT 6SM BR SCT250
     FM220600 VRB03KT 2SM BR SCT250
     FM220900 VRB03KT 1/2SM FG SCT250=



000
FTUS41 KRLX 211400 AAA
TAFHTS
TAF AMD
KHTS 211433Z 2115/2212 00000KT P6SM SCT035
     FM212300 00000KT P6SM BKN035
     FM220200 VRB03KT 4SM BR SCT250
     FM220900 VRB03KT 1/2SM FG SCT250=



000
FTUS41 KRLX 211200 AAA
TAFCKB
TAF AMD
KCKB 211251Z 2113/2212 00000KT 6SM BR FEW003 SCT035
     FM211400 00000KT P6SM SCT035
     FM220300 VRB03KT 6SM BR SCT250
     FM220600 VRB03KT 2SM BR SCT250
     FM220900 VRB03KT 1/2SM FG SCT250=



000
FTUS41 KRLX 211200 AAA
TAFEKN
TAF AMD
KEKN 211250Z 2113/2212 00000KT P6SM SCT003 SCT035
     FM211430 00000KT P6SM SCT035
     FM212000 VRB03KT P6SM BKN035
     FM220200 00000KT 4SM BR BKN035
     FM220600 00000KT 2SM BR SCT030
     FM220700 00000KT 1/4SM FG SCT250=



000
FTUS41 KRLX 211200 AAA
TAFCRW
TAF AMD
KCRW 211249Z 2113/2212 00000KT 4SM BR SCT002
     FM211400 00000KT P6SM SCT003
     FM211700 00000KT P6SM SCT035
     FM212200 VRB03KT P6SM BKN035
     FM220300 12004KT 4SM BR BKN035
     FM220800 15004KT 1/2SM FG SCT250=



000
FTUS41 KRLX 211100
TAFCKB
TAF
KCKB 211125Z 2112/2212 08003KT 3SM BR SCT002
      TEMPO 2112/2113 2SM BR
     FM211300 00000KT 4SM BR FEW003 SCT035
     FM211400 00000KT P6SM SCT035
     FM220300 VRB03KT 6SM BR SCT250
     FM220600 VRB03KT 2SM BR SCT250
     FM220900 VRB03KT 1/2SM FG SCT250=



000
FTUS41 KRLX 211100
TAFBKW
TAF
KBKW 211125Z 2112/2212 15007KT P6SM SCT250
     FM211700 13005KT P6SM SCT025
     FM211800 13005KT P6SM SCT025 BKN035
     FM212300 13005KT P6SM BKN035
     FM220200 13006KT P6SM BKN250=



000
FTUS41 KRLX 211100
TAFPKB
TAF
KPKB 211125Z 2112/2212 00000KT 1/2SM FG OVC001
     FM211300 VRB03KT 1SM BR BKN001
     FM211400 VRB03KT 4SM BR SCT003 SCT035
     FM211430 00000KT P6SM SCT035
     FM220300 00000KT 4SM BR SCT250
     FM220600 00000KT 1/2SM FG SCT250
     FM221100 VRB03KT 1/4SM FG FEW035=



000
FTUS41 KRLX 211100
TAFCRW
TAF
KCRW 211125Z 2112/2212 00000KT 2SM BR OVC001
     FM211300 00000KT 4SM BR BKN002
     FM211400 00000KT P6SM SCT003
     FM211700 00000KT P6SM SCT035
     FM212200 VRB03KT P6SM BKN035
     FM220300 12004KT 4SM BR BKN035
     FM220800 15004KT 1/2SM FG SCT250=



000
FTUS41 KRLX 211100
TAFHTS
TAF
KHTS 211125Z 2112/2212 00000KT 1/2SM FG OVC001
     FM211300 VRB03KT 1SM BR BKN001
     FM211400 VRB03KT 4SM BR SCT003 SCT035
     FM211430 00000KT P6SM SCT035
     FM212300 00000KT P6SM BKN035
     FM220200 VRB03KT 4SM BR SCT250
     FM220900 VRB03KT 1/2SM FG SCT250=



000
FTUS41 KRLX 211100
TAFEKN
TAF
KEKN 211125Z 2112/2212 00000KT 1SM BR BKN002 BKN035
     FM211400 00000KT 4SM BR FEW003 SCT030
     FM211500 00000KT P6SM SCT030
     FM212000 VRB03KT P6SM BKN035
     FM220200 00000KT 4SM BR BKN035
     FM220600 00000KT 2SM BR SCT030
     FM220700 00000KT 1/4SM FG SCT250=



000
FTUS41 KRLX 211000 AAC
TAFCKB
TAF AMD
KCKB 211047Z 2111/2206 00000KT 1SM BR SCT001
      TEMPO 2111/2112 3SM BR FEW001
     FM211300 00000KT 4SM BR FEW003 SCT040
     FM211330 VRB03KT P6SM FEW040
     FM220400 VRB03KT 6SM BR SCT250=



000
FTUS41 KRLX 210900 AAB
TAFCKB
TAF AMD
KCKB 210941Z 2110/2206 00000KT 1SM BR SCT001
     FM211300 00000KT 4SM BR FEW003 SCT040
     FM211330 VRB03KT P6SM FEW040
     FM220400 VRB03KT 6SM BR SCT250=



000
FTUS41 KRLX 210900 AAC
TAFCRW
TAF AMD
KCRW 210941Z 2110/2206 00000KT 1/2SM FG OVC001
     FM211200 00000KT 3SM BR BKN002 BKN080
     FM211300 00000KT P6SM FEW003 SCT060
     FM211500 00000KT P6SM SCT250
     FM211800 VRB03KT P6SM BKN040
     FM220100 VRB03KT 6SM BR BKN050=



000
FTUS41 KRLX 210900 AAB
TAFBKW
TAF AMD
KBKW 210941Z 2110/2206 13005KT P6SM SCT012 BKN035
     FM212000 13005KT P6SM VCTS SCT030CB BKN040
     FM220200 13006KT P6SM SCT030
     FM220300 13006KT P6SM SCT250=



000
FTUS41 KRLX 210900 AAB
TAFPKB
TAF AMD
KPKB 210941Z 2110/2206 00000KT 1/4SM FG VV001
     FM211200 00000KT 1SM BR BKN001
     FM211300 VRB03KT 4SM BR SCT002 SCT060
     FM211400 VRB03KT P6SM FEW005 SCT060
     FM211500 00000KT P6SM BKN250
     FM220300 00000KT 6SM BR SCT250=



000
FTUS41 KRLX 210900 AAC
TAFEKN
TAF AMD
KEKN 210941Z 2110/2206 00000KT 1SM BR BKN002
      TEMPO 2110/2112 3SM BR SCT002
     FM211300 VRB03KT 4SM BR SCT003 SCT050
     FM211400 VRB03KT P6SM FEW005 SCT050
     FM212000 14004KT P6SM VCSH BKN040
     FM220300 00000KT 4SM BR SCT050
     FM220400 00000KT 2SM BR SCT060=



000
FTUS41 KRLX 210900 AAB
TAFHTS
TAF AMD
KHTS 210941Z 2110/2206 00000KT 1/4SM FG VV001
     FM211200 00000KT 1SM BR BKN001
     FM211300 VRB03KT 4SM BR SCT002 SCT060
     FM211400 VRB03KT P6SM FEW005 SCT060
     FM211600 00000KT P6SM SCT250
     FM212100 VRB03KT P6SM SCT045=



000
FTUS41 KRLX 210800 AAB
TAFEKN
TAF AMD
KEKN 210816Z 2108/2206 00000KT 1 1/2SM BR FEW001 OVC090
     FM211000 00000KT 1/2SM FG BKN001
     FM211200 00000KT 3SM BR BKN001
     FM211300 VRB03KT P6SM SCT003 SCT050
     FM212000 14004KT P6SM VCSH BKN040
     FM220300 00000KT 4SM BR SCT050
     FM220400 00000KT 2SM BR SCT060=



000
FTUS41 KRLX 210700 AAA
TAFHTS
TAF AMD
KHTS 210750Z 2108/2206 00000KT 3SM BR FEW001 SCT040
     FM211100 00000KT 1SM BR BKN001
     FM211200 00000KT 4SM BR SCT002
     FM211300 VRB03KT P6SM FEW003 SCT060
     FM211600 00000KT P6SM SCT250
     FM212100 VRB03KT P6SM SCT045=



000
FTUS41 KRLX 210700 AAA
TAFBKW
TAF AMD
KBKW 210750Z 2108/2206 14011KT P6SM SCT012 BKN070
     FM211000 VRB03KT P6SM SCT007 BKN012
     FM211400 13005KT P6SM SCT015 BKN035
     FM212000 13005KT P6SM VCTS SCT030CB BKN040
     FM220200 13006KT P6SM SCT030
     FM220300 13006KT P6SM SCT250=



000
FTUS41 KRLX 210700 AAA
TAFPKB
TAF AMD
KPKB 210750Z 2108/2206 00000KT 1/4SM FG VV001
     FM211200 00000KT 1SM BR BKN001 OVC090
     FM211230 00000KT 3SM BR SCT003
     FM211330 00000KT P6SM FEW003 SCT070
     FM211500 00000KT P6SM BKN250
     FM220300 00000KT 6SM BR SCT250=



000
FTUS41 KRLX 210700 AAA
TAFCKB
TAF AMD
KCKB 210750Z 2108/2206 00000KT 6SM BR SCT035
     FM211000 00000KT 3SM BR SCT030
     FM211300 00000KT P6SM SCT040
     FM220400 VRB03KT 6SM BR SCT250=



000
FTUS41 KRLX 210700 AAA
TAFEKN
TAF AMD
KEKN 210750Z 2108/2206 00000KT 6SM BR FEW001 OVC090
     FM211000 00000KT 3SM BR SCT001
     FM211300 VRB03KT P6SM FEW003 SCT050
     FM212000 14004KT P6SM VCSH BKN040
     FM220300 00000KT 4SM BR SCT050
     FM220400 00000KT 2SM BR SCT060=



000
FTUS41 KRLX 210700 AAB
TAFCRW
TAF AMD
KCRW 210750Z 2108/2206 00000KT 1/2SM FG OVC001
     FM211200 00000KT 3SM BR SCT002 SCT080
     FM211300 00000KT P6SM FEW003 SCT060
     FM211500 00000KT P6SM SCT250
     FM211800 VRB03KT P6SM BKN040
     FM220100 VRB03KT 6SM BR BKN050=



000
FTUS41 KRLX 210500 AAA
TAFCRW
TAF AMD
KCRW 210539Z 2106/2206 00000KT 4SM BR BKN001
     FM210800 00000KT 1/2SM FG OVC001
     FM211200 00000KT 3SM BR SCT002 SCT080
     FM211300 00000KT P6SM FEW003 SCT060
     FM211500 00000KT P6SM SCT250
     FM211800 VRB03KT P6SM BKN040
     FM220100 VRB03KT 6SM BR BKN050=



000
FTUS41 KRLX 210500
TAFBKW
TAF
KBKW 210534Z 2106/2206 14011KT P6SM SCT012 BKN070
     FM211400 VRB03KT P6SM SCT007 BKN120
     FM211500 13005KT P6SM BKN030
     FM212000 13005KT P6SM VCTS SCT030CB BKN040
     FM220200 13006KT P6SM SCT030
     FM220300 13006KT P6SM SCT250=



000
FTUS41 KRLX 210500
TAFCKB
TAF
KCKB 210534Z 2106/2206 00000KT 6SM BR SCT030 BKN045
     FM210800 00000KT 4SM BR SCT030
     FM211000 00000KT 1 1/2SM BR SCT030
     FM211200 00000KT 3SM BR SCT030
     FM211300 00000KT P6SM SCT040
     FM220400 VRB03KT 6SM BR SCT250=



000
FTUS41 KRLX 210500
TAFPKB
TAF
KPKB 210534Z 2106/2206 00000KT 6SM BR FEW001 BKN035
     FM210800 00000KT 3SM BR SCT001
     FM211000 00000KT 1/2SM FG BKN001
     FM211200 00000KT 3SM BR SCT002 SCT090
     FM211300 00000KT P6SM FEW003 SCT070
     FM211500 00000KT P6SM BKN250
     FM220300 00000KT 6SM BR SCT250=



000
FTUS41 KRLX 210500
TAFCRW
TAF
KCRW 210534Z 2106/2206 00000KT 4SM BR SCT001
     FM210800 00000KT 1/2SM FG OVC001
     FM211200 00000KT 3SM BR SCT002 SCT080
     FM211300 00000KT P6SM FEW003 SCT060
     FM211500 00000KT P6SM SCT250
     FM211800 VRB03KT P6SM BKN040
     FM220100 VRB03KT 6SM BR BKN050=



000
FTUS41 KRLX 210500
TAFHTS
TAF
KHTS 210534Z 2106/2206 00000KT 3SM BR FEW001 SCT040
      TEMPO 2106/2108 1SM BR BKN001
     FM211100 00000KT 1SM BR BKN001
     FM211200 00000KT 4SM BR SCT002
     FM211300 VRB03KT P6SM FEW003 SCT060
     FM211600 00000KT P6SM SCT250
     FM212100 VRB03KT P6SM SCT045=



000
FTUS41 KRLX 210500
TAFEKN
TAF
KEKN 210534Z 2106/2206 00000KT 3SM BR VCSH FEW001 SCT040
     FM210800 00000KT 1/2SM FG OVC001
     FM211230 00000KT 3SM BR BKN001
     FM211400 VRB03KT P6SM FEW003 SCT050
     FM212000 14004KT P6SM VCSH BKN040
     FM220300 00000KT 4SM BR SCT050
     FM220400 00000KT 2SM BR SCT060=



000
FTUS41 KRLX 210500 AAC
TAFBKW
TAF AMD
KBKW 210503Z 2105/2124 15011KT P6SM SCT012 BKN070
     FM211400 VRB03KT P6SM SCT007 BKN120
     FM211500 13005KT P6SM BKN050
     FM212000 13005KT P6SM VCTS BKN050CB
     FM212300 14005KT P6SM BKN100=



000
FTUS41 KRLX 210400 AAC
TAFHTS
TAF AMD
KHTS 210450Z 2105/2124 09003KT 1SM BR SCT002
      TEMPO 2105/2107 1/2SM FG BKN002
     FM210700 00000KT 1/2SM FG BKN001
     FM211100 00000KT 1 1/2SM BR SCT002 SCT090
     FM211200 00000KT 4SM BR SCT090
     FM211300 VRB03KT P6SM SCT060=



000
FTUS41 KRLX 210300 AAB
TAFHTS
TAF AMD
KHTS 210335Z 2104/2124 09003KT 4SM BR SKC
     FM210700 00000KT 1SM BR SCT001
     FM210800 00000KT 1/2SM FG OVC001
     FM211100 00000KT 1 1/2SM BR SCT002 SCT090
     FM211200 00000KT 4SM BR SCT090
     FM211300 VRB03KT P6SM SCT060=



000
FTUS41 KRLX 210300 AAB
TAFCRW
TAF AMD
KCRW 210335Z 2104/2124 00000KT 4SM BR SCT001 SCT200
     FM210430 00000KT 3SM BR SCT150
     FM210630 00000KT 2SM BR SCT200
     FM210700 00000KT 1/2SM FG VV001
     FM211200 00000KT 3SM BR SCT002 SCT080
     FM211300 00000KT P6SM SCT060=



000
FTUS41 KRLX 210300 AAB
TAFBKW
TAF AMD
KBKW 210335Z 2104/2124 12011KT P6SM SKC
     FM210500 16004KT P6SM BKN003
     FM211400 VRB03KT P6SM SCT003 BKN120
     FM211500 13005KT P6SM BKN050
     FM212000 13005KT P6SM VCTS BKN050CB
     FM212300 14005KT P6SM BKN100=



000
FTUS41 KRLX 210300 AAB
TAFCKB
TAF AMD
KCKB 210335Z 2104/2124 20003KT 6SM BR FEW006 BKN045 OVC080
     FM210500 00000KT 5SM BR SCT250
     FM210800 00000KT 3SM BR SCT090
     FM210900 00000KT 1 1/2SM BR SCT080
     FM211200 00000KT 3SM BR SCT080
     FM211300 00000KT P6SM SCT060=



000
FTUS41 KRLX 210300 AAB
TAFEKN
TAF AMD
KEKN 210335Z 2104/2124 00000KT 6SM BR FEW006 BKN045 OVC060
     FM210400 VRB03KT 5SM BR SCT080
     FM210500 00000KT 2SM BR SCT070
     FM210630 00000KT 1/2SM FG OVC001
     FM211230 00000KT 3SM BR SCT002 SCT070
     FM211500 VRB03KT P6SM SCT050
     FM212000 14004KT P6SM VCSH BKN050=



000
FTUS41 KRLX 210300 AAB
TAFPKB
TAF AMD
KPKB 210335Z 2104/2124 00000KT P6SM SKC
     FM210500 00000KT 5SM BR SCT250
     FM210700 00000KT 1 1/2SM BR SCT080
     FM210800 00000KT 1/2SM FG OVC001
     FM211100 00000KT 3/4SM BR SCT001
     FM211200 00000KT 3SM BR SCT090
     FM211300 00000KT P6SM SCT070=



000
FTUS41 KRLX 210200 AAA
TAFPKB
TAF AMD
KPKB 210258Z 2103/2124 00000KT P6SM SKC
     FM210500 00000KT 5SM BR SCT250
     FM210700 00000KT 1 1/2SM BR SCT080
     FM210800 00000KT 1/2SM FG OVC001
     FM211100 00000KT 3/4SM BR SCT001
     FM211200 00000KT 3SM BR SCT090
     FM211300 00000KT P6SM SCT070=



000
FTUS41 KRLX 210200 AAA
TAFHTS
TAF AMD
KHTS 210258Z 2103/2124 09003KT 4SM BR SKC
     FM210700 00000KT 1SM BR SCT001
     FM210800 00000KT 1/2SM FG OVC001
     FM211100 00000KT 1 1/2SM BR SCT002 SCT090
     FM211200 00000KT 4SM BR SCT090
     FM211300 VRB03KT P6SM SCT060=



000
FTUS41 KRLX 210200 AAA
TAFBKW
TAF AMD
KBKW 210258Z 2103/2124 12011KT P6SM SKC
     FM210500 16004KT P6SM BKN003
     FM211400 VRB03KT P6SM SCT003 BKN120
     FM211500 13005KT P6SM BKN050
     FM212000 13005KT P6SM VCTS BKN050CB
     FM212300 14005KT P6SM BKN100=



000
FTUS41 KRLX 210200 AAA
TAFEKN
TAF AMD
KEKN 210258Z 2103/2124 00000KT 4SM -RA BR BKN045 OVC060
     FM210400 VRB03KT 3SM BR SCT080
     FM210500 00000KT 1SM BR SCT070
     FM210630 00000KT 1/2SM FG OVC001
     FM211230 00000KT 3SM BR SCT002 SCT070
     FM211500 VRB03KT P6SM SCT050
     FM212000 14004KT P6SM VCSH BKN050=



000
FTUS41 KRLX 210200 AAA
TAFCKB
TAF AMD
KCKB 210258Z 2103/2124 20003KT 6SM -RA BR BKN045 OVC070
     FM210400 00000KT 6SM BR SCT250
     FM210800 00000KT 3SM BR SCT090
     FM210900 00000KT 1 1/2SM BR SCT080
     FM211200 00000KT 3SM BR SCT080
     FM211300 00000KT P6SM SCT060=



000
FTUS41 KRLX 210200 AAA
TAFCRW
TAF AMD
KCRW 210258Z 2103/2124 00000KT P6SM SCT200
     FM210500 00000KT 3SM BR SCT150
     FM210630 00000KT 2SM BR SCT200
     FM210700 00000KT 1/2SM FG VV001
     FM211200 00000KT 3SM BR SCT002 SCT080
     FM211300 00000KT P6SM SCT060=



000
FTUS41 KRLX 202300 CCA
TAFEKN
TAF COR
KEKN 202337Z 2100/2124 19005KT 3SM -RA BKN025 BKN040 OVC060
     FM210030 00000KT 6SM BR SCT025 BKN040 BKN060
     FM210300 00000KT 6SM BR BKN120
     FM210600 VRB03KT 3SM BR SCT080
     FM210800 00000KT 1SM BR SCT070
     FM210900 00000KT 1/2SM FG OVC001
     FM211200 00000KT 3SM BR SCT002 SCT070
     FM211500 VRB03KT P6SM SCT050
     FM212000 14004KT P6SM VCSH BKN050=



000
FTUS41 KRLX 202300
TAFEKN
TAF
KEKN 202325Z 2100/2124 19005KT 2SM -RA BKN025 BKN040 OVC060
     FM210030 00000KT 6SM BR SCT025 BKN040 BKN060
     FM210300 00000KT 6SM BR BKN120
     FM210600 VRB03KT 3SM BR SCT080
     FM210800 00000KT 1SM BR SCT070
     FM210900 00000KT 1/2SM FG OVC001
     FM211200 00000KT 3SM BR SCT002 SCT070
     FM211500 VRB03KT P6SM SCT050
     FM212000 14004KT P6SM VCSH BKN050=



000
FTUS41 KRLX 202300
TAFCKB
TAF
KCKB 202325Z 2100/2124 29003KT P6SM SCT040 BKN100 BKN120
     FM210400 00000KT 6SM BR SCT250
     FM210800 00000KT 3SM BR SCT090
     FM210900 00000KT 1 1/2SM BR SCT080
     FM211200 00000KT 3SM BR SCT080
     FM211300 00000KT P6SM SCT060=



000
FTUS41 KRLX 202300
TAFHTS
TAF
KHTS 202325Z 2100/2124 00000KT 6SM HZ BKN090
     FM210500 00000KT 4SM BR SCT120
     FM210800 00000KT 1SM BR SCT001
     FM210900 00000KT 1/2SM FG OVC001
     FM211100 00000KT 1 1/2SM BR SCT002 SCT090
     FM211200 00000KT 4SM BR SCT090
     FM211300 VRB03KT P6SM SCT060=



000
FTUS41 KRLX 202300
TAFCRW
TAF
KCRW 202325Z 2100/2124 VRB06KT P6SM SCT021 BKN080 BKN120
     FM210300 00000KT 6SM BR SCT120
     FM210500 00000KT 3SM BR SCT150
     FM210700 00000KT 2SM BR SCT200
      TEMPO 2108/2111 1/2SM FG VV001
     FM211200 00000KT 3SM BR SCT080
     FM211300 00000KT P6SM SCT060=



000
FTUS41 KRLX 202300
TAFPKB
TAF
KPKB 202325Z 2100/2124 15003KT P6SM OVC060
     FM210500 00000KT 5SM BR SCT250
     FM210800 00000KT 1 1/2SM BR SCT080
     FM210900 00000KT 1/2SM FG OVC001
     FM211100 00000KT 3/4SM BR SCT001
     FM211200 00000KT 3SM BR SCT090
     FM211300 00000KT P6SM SCT070=



000
FTUS41 KRLX 202300
TAFBKW
TAF
KBKW 202325Z 2100/2124 17004KT P6SM SCT024 OVC070
     FM210500 16004KT P6SM BKN003
     FM211400 VRB03KT P6SM SCT003 BKN120
     FM211500 13005KT P6SM BKN050
     FM212000 13005KT P6SM VCTS BKN050CB
     FM212300 14005KT P6SM BKN100=



000
FTUS41 KRLX 202200 AAB
TAFEKN
TAF AMD
KEKN 202212Z 2022/2118 19004KT P6SM BKN040 BKN050 OVC060
      TEMPO 2022/2024 3SM -TSRA BKN030CB
     FM210000 VRB03KT P6SM BKN050
     FM210500 VRB03KT 2SM BR BKN050
     FM210700 00000KT 1/4SM FG OVC001
     FM211300 00000KT 2SM BR BKN001
     FM211330 22004KT P6SM BKN035=



000
FTUS41 KRLX 202100 AAA
TAFEKN
TAF AMD
KEKN 202101Z 2021/2118 21005KT P6SM VCTS BKN035CB OVC045
      TEMPO 2021/2022 5SM -SHRA OVC050
     FM210000 VRB03KT P6SM BKN050
     FM210500 VRB03KT 2SM BR BKN050
     FM210700 00000KT 1/4SM FG OVC001
     FM211300 00000KT 2SM BR BKN001
     FM211330 22004KT P6SM BKN035=



000
FTUS41 KRLX 202100 AAB
TAFHTS
TAF AMD
KHTS 202101Z 2021/2118 10003KT P6SM BKN016 OVC080
     FM210300 00000KT 3SM BR SCT040
     FM210500 00000KT 2SM BR SCT001
     FM210600 00000KT 1/2SM FG OVC001
     FM210700 00000KT 1/4SM FG OVC001
     FM211300 00000KT 2SM BR BKN001
     FM211330 VRB03KT P6SM SCT040=



000
FTUS41 KRLX 202100 AAB
TAFCRW
TAF AMD
KCRW 202101Z 2021/2118 28006KT P6SM SCT019 SCT090 BKN130
     FM210400 00000KT 6SM BR SCT040
     FM210600 00000KT 2SM BR FEW001 SCT040
     FM210700 00000KT 1/4SM FG OVC001
     FM211300 00000KT 2SM BR BKN004
     FM211330 00000KT P6SM SCT040=



000
FTUS41 KRLX 202100 AAB
TAFPKB
TAF AMD
KPKB 202101Z 2021/2118 18005KT P6SM OVC090
     FM210500 00000KT 4SM BR SCT045
     FM210700 00000KT 2SM BR SCT001
     FM210800 00000KT 1/4SM FG OVC001
     FM211300 00000KT 4SM BR SCT040
     FM211400 00000KT P6SM SCT040=



000
FTUS41 KRLX 202100 AAA
TAFBKW
TAF AMD
KBKW 202101Z 2021/2118 24006KT P6SM VCSH FEW020 SCT040 BKN060
     FM210000 16005KT P6SM SCT025
     FM210500 15004KT 4SM BR SCT020
     FM210900 00000KT 3SM BR BKN020
     FM211300 VRB03KT P6SM BKN035=



000
FTUS41 KRLX 202100 AAA
TAFCKB
TAF AMD
KCKB 202101Z 2021/2118 VRB03KT P6SM VCSH FEW035 FEW070 BKN120
     FM202300 VRB03KT P6SM SCT040
     FM210700 00000KT 4SM BR SCT040
     FM210900 00000KT 2SM BR SCT035
     FM211000 00000KT 1/2SM FG BKN001
     FM211200 00000KT 3SM BR SCT001
     FM211300 VRB03KT P6SM SCT040=



000
FTUS41 KRLX 201800 CCA
TAFHTS
TAF COR
KHTS 201845Z 2019/2118 00000KT 5SM BR BKN006 OVC025
      TEMPO 2019/2020 6SM BR SCT006 OVC025
     FM202000 00000KT P6SM BKN030
     FM210300 00000KT 3SM BR SCT040
     FM210500 00000KT 2SM BR SCT001
     FM210600 00000KT 1/2SM FG OVC001
     FM210700 00000KT 1/4SM FG OVC001
     FM211300 00000KT 2SM BR BKN001
     FM211330 VRB03KT P6SM SCT040=



000
FTUS41 KRLX 201800 AAA
TAFHTS
TAF AMD
KHTS 201841Z 2019/2118 00000KT 5SM BR BKN006 OVC025
      TEMPO 2019/2020 6SM BR SCT006 OVC025
     FM210300 00000KT 3SM BR SCT040
     FM210500 00000KT 2SM BR SCT001
     FM210600 00000KT 1/2SM FG OVC001
     FM210700 00000KT 1/4SM FG OVC001
     FM211300 00000KT 2SM BR BKN001
     FM211330 VRB03KT P6SM SCT040=



000
FTUS41 KRLX 201800 AAA
TAFCRW
TAF AMD
KCRW 201840Z 2019/2118 00000KT P6SM BKN040
     FM210400 00000KT 6SM BR SCT040
     FM210600 00000KT 2SM BR FEW001 SCT040
     FM210700 00000KT 1/4SM FG OVC001
     FM211300 00000KT 2SM BR BKN004
     FM211330 00000KT P6SM SCT040=



000
FTUS41 KRLX 201800 AAA
TAFPKB
TAF AMD
KPKB 201840Z 2019/2118 VRB03KT P6SM BKN040
     FM210500 00000KT 4SM BR SCT045
     FM210700 00000KT 2SM BR SCT001
     FM210800 00000KT 1/4SM FG OVC001
     FM211300 00000KT 4SM BR SCT040
     FM211400 00000KT P6SM SCT040=



000
FTUS41 KRLX 201700
TAFCKB
TAF
KCKB 201740Z 2018/2118 19004KT P6SM BKN035
     FM202000 21004KT P6SM VCSH BKN040
     FM202300 VRB03KT P6SM SCT040
     FM210700 00000KT 4SM BR SCT040
     FM210900 00000KT 2SM BR SCT035
     FM211000 00000KT 1/2SM FG BKN001
     FM211200 00000KT 3SM BR SCT001
     FM211300 VRB03KT P6SM SCT040=



000
FTUS41 KRLX 201700
TAFBKW
TAF
KBKW 201740Z 2018/2118 14006KT P6SM VCSH BKN025 OVC035
     FM210000 16005KT P6SM SCT025
     FM210500 15004KT 4SM BR SCT020
     FM210900 00000KT 3SM BR BKN020
     FM211300 VRB03KT P6SM BKN035=



000
FTUS41 KRLX 201700
TAFPKB
TAF
KPKB 201740Z 2018/2118 VRB03KT P6SM BKN030
     FM202000 00000KT P6SM BKN040
     FM210500 00000KT 4SM BR SCT045
     FM210700 00000KT 2SM BR SCT001
     FM210800 00000KT 1/4SM FG OVC001
     FM211300 00000KT 4SM BR SCT040
     FM211400 00000KT P6SM SCT040=



000
FTUS41 KRLX 201700
TAFCRW
TAF
KCRW 201740Z 2018/2118 00000KT P6SM -SHRA BKN025 BKN040
     FM202000 00000KT P6SM BKN040
     FM210400 00000KT 6SM BR SCT040
     FM210600 00000KT 2SM BR FEW001 SCT040
     FM210700 00000KT 1/4SM FG OVC001
     FM211300 00000KT 2SM BR BKN004
     FM211330 00000KT P6SM SCT040=



000
FTUS41 KRLX 201700
TAFHTS
TAF
KHTS 201740Z 2018/2118 00000KT 5SM BR BKN004 OVC025
      TEMPO 2018/2019 6SM BR SCT004 OVC025
     FM201900 00000KT P6SM FEW008 OVC025
     FM210300 00000KT 3SM BR SCT040
     FM210500 00000KT 2SM BR SCT001
     FM210600 00000KT 1/2SM FG OVC001
     FM210700 00000KT 1/4SM FG OVC001
     FM211300 00000KT 2SM BR BKN001
     FM211330 VRB03KT P6SM SCT040=



000
FTUS41 KRLX 201700
TAFEKN
TAF
KEKN 201740Z 2018/2118 VRB04KT P6SM OVC045
     FM202000 21004KT P6SM -SHRA VCTS OVC050CB
      TEMPO 2020/2022 5SM -SHRA OVC050
     FM210000 VRB03KT P6SM BKN050
     FM210500 VRB03KT 2SM BR BKN050
     FM210700 00000KT 1/4SM FG OVC001
     FM211300 00000KT 2SM BR BKN001
     FM211330 22004KT P6SM BKN035=



000
FTUS41 KRLX 201600 AAD
TAFHTS
TAF AMD
KHTS 201657Z 2017/2112 00000KT 5SM BR SCT004 OVC025
      TEMPO 2017/2018 BKN004 BKN025 OVC040
     FM201800 VRB03KT P6SM BKN025 OVC040
     FM202000 17004KT P6SM BKN035
     FM210500 00000KT 5SM BR SCT045
     FM210800 00000KT 3SM BR SCT045
     FM210900 00000KT 2SM BR SCT002 SCT045=



000
FTUS41 KRLX 201600 AAC
TAFHTS
TAF AMD
KHTS 201610Z 2016/2112 00000KT 5SM SHRA SCT004 OVC025
      TEMPO 2016/2017 1SM SHRA BKN004 BKN025 OVC040
     FM201700 VRB03KT P6SM SHRA BKN025 OVC040
     FM201800 17004KT P6SM BKN035
     FM210500 00000KT 5SM BR SCT045
     FM210800 00000KT 3SM BR SCT045
     FM210900 00000KT 2SM BR SCT002 SCT045=



000
FTUS41 KRLX 201500 AAB
TAFHTS
TAF AMD
KHTS 201506Z 2015/2112 00000KT 2SM SHRA SCT004 OVC025
      TEMPO 2015/2016 1SM SHRA BKN004 BKN025 OVC040
     FM201600 VRB03KT P6SM SHRA BKN025 OVC040
     FM201700 17004KT P6SM BKN035
     FM210500 00000KT 5SM BR SCT045
     FM210800 00000KT 3SM BR SCT045
     FM210900 00000KT 2SM BR SCT002 SCT045=



000
FTUS41 KRLX 201500 AAB
TAFPKB
TAF AMD
KPKB 201506Z 2015/2112 VRB03KT P6SM BKN070
     FM210500 00000KT 5SM BR SCT040
     FM210900 00000KT 1 1/2SM BR SCT001 SCT040=



000
FTUS41 KRLX 201500 AAA
TAFCKB
TAF AMD
KCKB 201506Z 2015/2112 VRB03KT P6SM BKN110
     FM202000 17005KT P6SM VCSH BKN040
     FM210700 00000KT 5SM BR SCT035=



000
FTUS41 KRLX 201500 AAA
TAFBKW
TAF AMD
KBKW 201506Z 2015/2112 16007KT P6SM BKN070
     FM201600 15007KT P6SM -SHRA OVC040
     FM201700 19007KT P6SM SHRA OVC040
     FM201900 21007KT P6SM VCTS BKN040CB
     FM210000 14005KT P6SM BKN040
     FM210600 14004KT P6SM BKN010
     FM211100 VRB03KT P6SM SCT010=



000
FTUS41 KRLX 201500 AAA
TAFEKN
TAF AMD
KEKN 201506Z 2015/2112 VRB03KT P6SM OVC110
     FM201800 28004KT P6SM VCTS BKN035CB
      TEMPO 2019/2021 3SM TS OVC035CB
     FM202100 29005KT P6SM -SHRA OVC035
     FM202200 34004KT P6SM BKN040
     FM210500 VRB03KT 5SM BR BKN040
     FM210800 VRB03KT 3SM BR BKN040
     FM211000 00000KT 1/4SM FG BKN001=



000
FTUS41 KRLX 201500 AAB
TAFCRW
TAF AMD
KCRW 201506Z 2015/2112 VRB04KT P6SM VCSH SCT025 OVC060
     FM201600 16005KT 5SM -SHRA OVC030
     FM201700 16006KT P6SM SCT030 OVC060
     FM210500 00000KT 5SM BR SCT045
     FM210800 00000KT 2SM BR SCT001 SCT050
     FM211000 00000KT 1/2SM FG BKN001=



000
FTUS41 KRLX 201200 AAA
TAFPKB
TAF AMD
KPKB 201257Z 2013/2112 VRB03KT P6SM BKN035
     FM210500 00000KT 5SM BR SCT040
     FM210900 00000KT 1 1/2SM BR SCT001 SCT040=



000
FTUS41 KRLX 201200 AAA
TAFCRW
TAF AMD
KCRW 201257Z 2013/2112 00000KT 4SM SHRA BR OVC025
     FM201500 16005KT P6SM BKN035
     FM210500 00000KT 5SM BR SCT045
     FM210800 00000KT 2SM BR SCT001 SCT050
     FM211000 00000KT 1/2SM FG BKN001=



000
FTUS41 KRLX 201200 AAA
TAFHTS
TAF AMD
KHTS 201256Z 2013/2112 00000KT 2SM SHRA OVC025
      TEMPO 2013/2014 1SM SHRA
     FM201400 VRB03KT P6SM SHRA BKN025
     FM201500 17004KT P6SM BKN035
     FM210500 00000KT 5SM BR SCT045
     FM210800 00000KT 3SM BR SCT045
     FM210900 00000KT 2SM BR SCT002 SCT045=



000
FTUS41 KRLX 201100
TAFHTS
TAF
KHTS 201125Z 2012/2112 00000KT 6SM BR OVC030
     FM201300 VRB03KT P6SM SHRA BKN025
     FM201500 17004KT P6SM BKN035
     FM210500 00000KT 5SM BR SCT045
     FM210800 00000KT 3SM BR SCT045
     FM210900 00000KT 2SM BR SCT002 SCT045=



000
FTUS41 KRLX 201100
TAFCKB
TAF
KCKB 201125Z 2012/2112 VRB03KT P6SM BKN045
     FM201400 17005KT P6SM BKN035
     FM210700 00000KT 5SM BR SCT035=



000
FTUS41 KRLX 201100
TAFPKB
TAF
KPKB 201125Z 2012/2112 00000KT 3SM BR BKN002 OVC035
      TEMPO 2012/2013 1/2SM FG OVC001
     FM201330 VRB03KT P6SM BKN035
     FM210500 00000KT 5SM BR SCT040
     FM210900 00000KT 1 1/2SM BR SCT001 SCT040=



000
FTUS41 KRLX 201100
TAFEKN
TAF
KEKN 201125Z 2012/2112 00000KT P6SM OVC045
     FM201700 17004KT P6SM BKN035
     FM210500 VRB03KT 5SM BR BKN040
     FM210800 VRB03KT 3SM BR BKN040
     FM211000 00000KT 1/4SM FG BKN001=



000
FTUS41 KRLX 201100
TAFCRW
TAF
KCRW 201125Z 2012/2112 00000KT 4SM SHRA BR OVC025
     FM201230 16005KT P6SM BKN035
     FM210500 00000KT 5SM BR SCT045
     FM210800 00000KT 2SM BR SCT001 SCT050
     FM211000 00000KT 1/2SM FG BKN001=



000
FTUS41 KRLX 201100
TAFBKW
TAF
KBKW 201125Z 2012/2112 14005KT P6SM SHRA OVC040
     FM201400 15007KT P6SM BKN045
     FM210300 14005KT P6SM BKN020
     FM210600 14004KT P6SM BKN010
     FM210800 VRB03KT 6SM BR BKN010
     FM211100 VRB03KT 5SM BR SCT010=



000
FTUS41 KRLX 201000 AAC
TAFCRW
TAF AMD
KCRW 201023Z 2010/2106 00000KT 6SM BR BKN035
      TEMPO 2010/2012 4SM SHRA BKN015
     FM201200 VRB03KT P6SM BKN030
     FM201600 VRB03KT P6SM BKN035
     FM202300 00000KT P6SM SCT035=



000
FTUS41 KRLX 200900 AAC
TAFPKB
TAF AMD
KPKB 200950Z 2010/2106 00000KT 1SM BR BKN002
      TEMPO 2010/2012 4SM BR BKN050
     FM201200 00000KT 4SM BR BKN015
     FM201300 VRB03KT P6SM BKN025
     FM201600 16004KT P6SM BKN035
     FM202000 00000KT P6SM SCT035=



000
FTUS41 KRLX 200900 AAB
TAFEKN
TAF AMD
KEKN 200938Z 2010/2106 00000KT 1 1/2SM BR SCT001 BKN050
      TEMPO 2010/2012 6SM BR
     FM201200 00000KT 6SM BR OVC025
     FM201300 VRB03KT 6SM BR BKN015
     FM201500 17004KT P6SM BKN025
     FM201600 18004KT P6SM BKN035
     FM210100 00000KT P6SM BKN040=



000
FTUS41 KRLX 200800 CCA
TAFCRW
TAF COR
KCRW 200842Z 2009/2106 00000KT 6SM BR SCT001 BKN035
     FM201000 00000KT 6SM BR BKN025
      TEMPO 2010/2012 2SM SHRA BKN010
     FM201400 VRB03KT P6SM BKN030
     FM201600 VRB03KT P6SM BKN035
     FM202300 00000KT P6SM SCT035=



000
FTUS41 KRLX 200800 CCA
TAFPKB
TAF COR
KPKB 200839Z 2009/2106 00000KT 1SM BR SCT003 OVC050
      TEMPO 2009/2010 6SM BR BKN025
     FM201000 00000KT 6SM BR BKN015
     FM201300 VRB03KT P6SM BKN025
     FM201600 16004KT P6SM BKN035
     FM202000 00000KT P6SM SCT035=



000
FTUS41 KRLX 200800 AAB
TAFPKB
TAF AMD
KPKB 200838Z 2009/2106 00000KT 6SM BR OVC050
      TEMPO 2009/2010 1SM BR SCT003
     FM201100 00000KT 6SM BR BKN015
     FM201300 VRB03KT P6SM BKN025
     FM201600 16004KT P6SM BKN035
     FM202000 00000KT P6SM SCT035=



000
FTUS41 KRLX 200800 AAA
TAFBKW
TAF AMD
KBKW 200838Z 2009/2106 15008KT P6SM OVC040
     FM201100 14005KT P6SM BKN015
     FM201500 15007KT P6SM BKN025
     FM201700 15007KT P6SM BKN035=



000
FTUS41 KRLX 200800 AAB
TAFHTS
TAF AMD
KHTS 200838Z 2009/2106 00000KT 6SM BR BKN035
     FM201000 00000KT 6SM BR BKN025
     FM201500 17004KT P6SM BKN035
     FM202300 00000KT P6SM SCT040=



000
FTUS41 KRLX 200800 AAA
TAFEKN
TAF AMD
KEKN 200838Z 2009/2106 00000KT 6SM BR SCT001 BKN050
     FM201200 00000KT 6SM BR OVC025
     FM201300 VRB03KT 6SM BR BKN015
     FM201500 17004KT P6SM BKN025
     FM201600 18004KT P6SM BKN035
     FM210100 00000KT P6SM BKN040=



000
FTUS41 KRLX 200800 AAC
TAFCKB
TAF AMD
KCKB 200838Z 2009/2106 VRB04KT 6SM BR BKN050
      TEMPO 2009/2012 00000KT 2SM BR
     FM201200 00000KT 6SM BR OVC025
     FM201300 15004KT P6SM BKN035
     FM201600 17004KT P6SM BKN040
     FM202100 19004KT P6SM SCT050=



000
FTUS41 KRLX 200800 AAB
TAFCRW
TAF AMD
KCRW 200838Z 2009/2106 00000KT 6SM BR SCT001 BKN035
     FM201000 00000KT 6SM BR BKN025
     FM201400 VRB03KT P6SM BKN030
     FM201600 VRB03KT P6SM BKN035
     FM202300 00000KT P6SM SCT035=



000
FTUS41 KRLX 200800 AAA
TAFPKB
TAF AMD
KPKB 200802Z 2008/2106 00000KT 6SM BR SCT030 OVC050
     FM201100 00000KT 6SM BR BKN015
     FM201300 VRB03KT P6SM BKN025
     FM201600 16004KT P6SM BKN035
     FM202000 00000KT P6SM SCT035=



000
FTUS41 KRLX 200700 AAB
TAFCKB
TAF AMD
KCKB 200701Z 2007/2106 VRB04KT 6SM BR BKN050
      TEMPO 2007/2010 00000KT 4SM BR SCT050
     FM201200 00000KT 6SM BR OVC025
     FM201300 15004KT P6SM BKN035
     FM201600 17004KT P6SM BKN040
     FM202100 19004KT P6SM SCT050=



000
FTUS41 KRLX 200700 AAA
TAFCRW
TAF AMD
KCRW 200700Z 2007/2106 00000KT 4SM BR SCT004 BKN035
     FM201000 00000KT 6SM BR BKN025
     FM201400 VRB03KT P6SM BKN030
     FM201600 VRB03KT P6SM BKN035
     FM202300 00000KT P6SM SCT035=



000
FTUS41 KRLX 200600 CCA
TAFHTS
TAF COR
KHTS 200655Z 2007/2106 00000KT 6SM BR BKN035
      TEMPO 2007/2009 4SM BR SCT035
     FM200900 00000KT 5SM BR BKN015
     FM201300 15003KT P6SM BKN025
     FM201500 17004KT P6SM BKN035
     FM202300 00000KT P6SM SCT040=



000
FTUS41 KRLX 200600 AAA
TAFHTS
TAF AMD
KHTS 200640Z 2007/2106 00000KT 3/4SM BR VV002
      TEMPO 2007/2010 4SM BR BKN035
     FM201000 00000KT 5SM BR BKN015
     FM201300 15003KT P6SM BKN025
     FM201500 17004KT P6SM BKN035
     FM202300 00000KT P6SM SCT040=



000
FTUS41 KRLX 200600 AAA
TAFCKB
TAF AMD
KCKB 200600Z 2006/2106 00000KT 1 1/2SM BR SCT005 SCT030
      TEMPO 2008/2012 VRB04KT 4SM BR BKN025
     FM201200 00000KT 3SM BR OVC025
     FM201300 15004KT P6SM BKN035
     FM201600 17004KT P6SM BKN040
     FM202100 19004KT P6SM SCT050=



000
FTUS41 KRLX 200500
TAFCRW
TAF
KCRW 200523Z 2006/2106 00000KT 5SM BR FEW001 FEW100
     FM200700 00000KT 2SM BR SCT001 SCT040
     FM201000 00000KT 4SM BR SCT004 BKN035
     FM201200 00000KT 6SM BR BKN025
     FM201400 VRB03KT P6SM BKN030
     FM201600 VRB03KT P6SM BKN035
     FM202300 00000KT P6SM SCT035=



000
FTUS41 KRLX 200500
TAFEKN
TAF
KEKN 200523Z 2006/2106 00000KT 4SM BR SCT001 SCT050
     FM200900 00000KT 1/4SM FG VV001
     FM201200 00000KT 1SM BR OVC003
     FM201300 VRB03KT 6SM BR BKN015
     FM201500 17004KT P6SM BKN025
     FM201600 18004KT P6SM BKN035
     FM210100 00000KT P6SM BKN040=



000
FTUS41 KRLX 200500
TAFPKB
TAF
KPKB 200523Z 2006/2106 00000KT 6SM BR SCT030 OVC050
     FM200700 00000KT 2SM BR SCT002 SCT030
     FM201100 00000KT 3SM BR BKN015
     FM201300 VRB03KT P6SM BKN025
     FM201600 16004KT P6SM BKN035
     FM202000 00000KT P6SM SCT035=



000
FTUS41 KRLX 200500
TAFCKB
TAF
KCKB 200523Z 2006/2106 00000KT 6SM BR BKN050
     FM200800 00000KT 1 1/2SM BR SCT005 SCT030
     FM201200 00000KT 3SM BR OVC025
     FM201300 15004KT P6SM BKN035
     FM201600 17004KT P6SM BKN040
     FM202100 19004KT P6SM SCT050=



000
FTUS41 KRLX 200500
TAFHTS
TAF
KHTS 200523Z 2006/2106 00000KT 3SM BR FEW100
     FM200700 00000KT 4SM BR BKN035
     FM200900 00000KT 5SM BR BKN015
     FM201300 15003KT P6SM BKN025
     FM201500 17004KT P6SM BKN035
     FM202300 00000KT P6SM SCT040=



000
FTUS41 KRLX 200500
TAFBKW
TAF
KBKW 200523Z 2006/2106 15005KT P6SM OVC050
     FM200900 15005KT 6SM BR OVC040
     FM201100 14005KT P6SM BKN008
     FM201500 15007KT P6SM BKN015
     FM201700 15007KT P6SM BKN035=



    US Dept of Commerce
    National Oceanic and Atmospheric Administration
    National Weather Service
    1325 East West Highway
    Silver Spring, MD 20910
    Page Author: NWS Internet Services Team
Disclaimer
Information Quality
Credits
Glossary
Privacy Policy
Freedom of Information Act (FOIA)
About Us
Career Opportunities